createdAt,value
2023-02-14T00:01:28.135Z,136.60
2023-02-14T00:04:01.376Z,170.30
2023-02-14T00:06:30.267Z,170.00
2023-02-14T00:08:58.327Z,173.18
2023-02-14T00:11:26.598Z,153.00
2023-02-14T00:14:13.068Z,144.27
2023-02-14T00:16:41.294Z,152.32
2023-02-14T00:19:09.573Z,152.15
2023-02-14T00:21:38.526Z,148.68
2023-02-14T00:24:08.860Z,152.07
2023-02-14T00:26:39.027Z,152.43
2023-02-14T00:29:10.051Z,156.18
2023-02-14T00:31:38.073Z,157.80
2023-02-14T00:34:06.455Z,125.22
2023-02-14T00:36:35.243Z,162.35
2023-02-14T00:39:07.118Z,169.82
2023-02-14T00:41:35.010Z,161.60
2023-02-14T00:44:03.195Z,164.52
2023-02-14T00:46:31.126Z,183.93
2023-02-14T00:48:59.159Z,187.95
2023-02-14T00:51:27.293Z,194.27
2023-02-14T00:53:55.650Z,193.07
2023-02-14T00:56:23.715Z,204.02
2023-02-14T00:58:51.898Z,228.52
2023-02-14T01:01:20.054Z,209.80
2023-02-14T01:03:48.235Z,197.05
2023-02-14T01:06:16.233Z,215.30
2023-02-14T01:08:44.393Z,204.15
2023-02-14T01:11:18.000Z,182.45
2023-02-14T01:13:47.972Z,175.40
2023-02-14T01:16:18.094Z,202.30
2023-02-14T01:18:46.254Z,217.23
2023-02-14T01:21:20.290Z,214.25
2023-02-14T01:23:51.325Z,222.70
2023-02-14T01:26:20.223Z,217.35
2023-02-14T01:28:48.099Z,213.35
2023-02-14T01:31:22.122Z,255.02
2023-02-14T01:33:50.454Z,258.67
2023-02-14T01:36:25.429Z,225.60
2023-02-14T01:38:54.818Z,195.75
2023-02-14T01:41:24.411Z,191.23
2023-02-14T01:44:02.986Z,178.15
2023-02-14T01:46:33.448Z,178.68
2023-02-14T01:49:09.752Z,177.20
2023-02-14T01:51:39.202Z,152.55
2023-02-14T01:54:07.446Z,158.23
2023-02-14T01:56:41.582Z,157.20
2023-02-14T01:59:11.218Z,166.18
2023-02-14T02:01:39.401Z,171.93
2023-02-14T02:04:16.656Z,167.73
2023-02-14T02:06:46.792Z,176.15
2023-02-14T02:09:17.701Z,199.43
2023-02-14T02:11:46.084Z,182.23
2023-02-14T02:14:19.099Z,184.90
2023-02-14T02:17:05.812Z,195.93
2023-02-14T02:19:49.329Z,230.77
2023-02-14T02:22:29.031Z,210.95
2023-02-14T02:25:17.208Z,226.43
2023-02-14T02:28:14.470Z,229.55
2023-02-14T02:31:06.846Z,227.27
2023-02-14T02:33:43.512Z,255.57
2023-02-14T02:36:29.919Z,318.83
2023-02-14T02:39:09.442Z,328.30
2023-02-14T02:41:56.373Z,363.58
2023-02-14T02:44:58.586Z,267.73
2023-02-14T02:47:33.992Z,254.37
2023-02-14T02:50:42.017Z,280.23
2023-02-14T02:53:35.409Z,278.20
2023-02-14T02:56:31.130Z,279.15
2023-02-14T02:59:19.406Z,240.98
2023-02-14T03:02:08.089Z,305.13
2023-02-14T03:04:53.930Z,271.15
2023-02-14T03:07:37.247Z,299.40
2023-02-14T03:12:34.193Z,256.50
2023-02-14T03:15:30.449Z,291.00
2023-02-14T03:18:02.886Z,316.20
2023-02-14T03:20:45.874Z,354.98
2023-02-14T03:26:13.968Z,341.10
2023-02-14T03:29:02.774Z,361.63
2023-02-14T03:31:37.522Z,349.63
2023-02-14T03:34:17.747Z,349.10
2023-02-14T03:37:04.007Z,348.75
2023-02-14T03:40:10.307Z,353.40
2023-02-14T03:42:46.143Z,379.58
2023-02-14T03:45:19.042Z,379.13
2023-02-14T03:47:47.444Z,378.15
2023-02-14T03:50:17.804Z,379.77
2023-02-14T03:52:46.489Z,387.17
2023-02-14T03:55:17.101Z,406.95
2023-02-14T03:58:13.487Z,408.55
2023-02-14T04:00:41.640Z,426.75
2023-02-14T04:03:13.440Z,419.20
2023-02-14T04:05:43.907Z,327.53
2023-02-14T04:08:12.794Z,425.92
2023-02-14T04:10:42.312Z,426.30
2023-02-14T04:13:10.723Z,439.13
2023-02-14T04:15:38.468Z,423.45
2023-02-14T04:18:24.714Z,421.88
2023-02-14T04:20:52.494Z,437.27
2023-02-14T04:23:21.079Z,446.15
2023-02-14T04:25:48.902Z,440.65
2023-02-14T04:28:16.883Z,419.73
2023-02-14T04:30:44.953Z,402.92
2023-02-14T04:33:12.970Z,387.80
2023-02-14T04:35:41.121Z,388.08
2023-02-14T04:38:08.965Z,379.73
2023-02-14T04:40:36.703Z,369.67
2023-02-14T04:43:05.353Z,369.13
2023-02-14T04:45:33.381Z,359.10
2023-02-14T04:48:01.364Z,340.05
2023-02-14T04:50:29.155Z,322.08
2023-02-14T04:52:57.230Z,340.83
2023-02-14T04:55:25.346Z,331.02
2023-02-14T04:57:53.464Z,340.88
2023-02-14T05:00:22.229Z,341.75
2023-02-14T05:02:50.080Z,312.02
2023-02-14T05:05:18.247Z,312.40
2023-02-14T05:07:48.229Z,295.95
2023-02-14T05:10:16.286Z,311.70
2023-02-14T05:12:44.761Z,254.70
2023-02-14T05:15:12.596Z,236.82
2023-02-14T05:17:40.672Z,219.68
2023-02-14T05:20:09.368Z,218.88
2023-02-14T05:22:37.114Z,213.40
2023-02-14T05:25:05.101Z,210.95
2023-02-14T05:27:33.141Z,203.70
2023-02-14T05:30:01.061Z,191.95
2023-02-14T05:32:29.081Z,180.55
2023-02-14T05:34:57.091Z,188.75
2023-02-14T05:37:24.948Z,183.95
2023-02-14T05:39:52.946Z,180.80
2023-02-14T05:42:21.166Z,177.43
2023-02-14T05:44:49.237Z,173.75
2023-02-14T05:47:17.259Z,174.93
2023-02-14T05:49:45.298Z,172.60
2023-02-14T05:52:13.106Z,171.02
2023-02-14T05:54:41.138Z,169.90
2023-02-14T05:57:09.085Z,160.93
2023-02-14T05:59:37.463Z,151.30
2023-02-14T06:02:05.331Z,147.27
2023-02-14T06:04:33.754Z,128.73
2023-02-14T06:07:01.515Z,131.98
2023-02-14T06:09:29.335Z,128.10
2023-02-14T06:11:57.747Z,142.85
2023-02-14T06:14:25.629Z,141.32
2023-02-14T06:16:54.352Z,138.13
2023-02-14T06:19:22.593Z,144.60
2023-02-14T06:21:50.436Z,137.73
2023-02-14T06:24:18.867Z,133.90
2023-02-14T06:26:48.528Z,137.85
2023-02-14T06:29:18.169Z,129.73
2023-02-14T06:31:46.093Z,133.32
2023-02-14T06:34:15.920Z,139.50
2023-02-14T06:36:44.536Z,140.05
2023-02-14T06:39:13.009Z,134.80
2023-02-14T06:41:41.169Z,137.45
2023-02-14T06:44:11.085Z,136.32
2023-02-14T06:46:39.168Z,152.77
2023-02-14T06:49:06.899Z,143.13
2023-02-14T06:51:34.743Z,149.90
2023-02-14T06:54:03.165Z,143.38
2023-02-14T06:56:31.178Z,147.30
2023-02-14T06:58:59.502Z,155.07
2023-02-14T07:01:27.848Z,153.82
2023-02-14T07:03:56.910Z,151.30
2023-02-14T07:06:24.663Z,160.27
2023-02-14T07:08:52.348Z,154.50
2023-02-14T07:11:20.738Z,156.40
2023-02-14T07:13:49.621Z,148.93
2023-02-14T07:16:17.754Z,157.90
2023-02-14T07:18:46.160Z,161.00
2023-02-14T07:21:13.846Z,166.88
2023-02-14T07:23:41.830Z,163.90
2023-02-14T07:26:10.178Z,171.77
2023-02-14T07:28:38.323Z,169.05
2023-02-14T07:31:06.857Z,177.70
2023-02-14T07:33:35.020Z,185.82
2023-02-14T07:36:07.879Z,161.68
2023-02-14T07:41:03.359Z,164.55
2023-02-14T07:43:31.343Z,171.95
2023-02-14T07:46:00.995Z,182.20
2023-02-14T07:48:31.058Z,184.68
2023-02-14T07:51:00.591Z,183.07
2023-02-14T07:53:28.842Z,184.23
2023-02-14T07:55:57.257Z,195.60
2023-02-14T07:58:25.021Z,217.63
2023-02-14T08:00:53.075Z,200.27
2023-02-14T08:03:20.883Z,201.63
2023-02-14T08:05:57.530Z,195.40
2023-02-14T08:08:30.183Z,182.07
2023-02-14T08:10:58.545Z,168.77
2023-02-14T08:13:26.571Z,175.38
2023-02-14T08:16:06.897Z,161.98
2023-02-14T08:18:42.054Z,157.23
2023-02-14T08:21:11.318Z,144.70
2023-02-14T08:23:39.627Z,153.20
2023-02-14T08:26:08.059Z,158.38
2023-02-14T08:28:36.074Z,155.23
2023-02-14T08:31:04.556Z,157.10
2023-02-14T08:33:33.307Z,155.05
2023-02-14T08:36:01.205Z,148.68
2023-02-14T08:38:30.069Z,148.75
2023-02-14T08:41:04.552Z,154.80
2023-02-14T08:43:34.432Z,154.43
2023-02-14T08:46:03.089Z,150.25
2023-02-14T08:48:31.627Z,160.45
2023-02-14T08:50:59.719Z,165.48
2023-02-14T08:53:27.796Z,165.60
2023-02-14T08:55:55.628Z,154.60
2023-02-14T08:58:23.362Z,163.23
2023-02-14T09:00:51.559Z,163.75
2023-02-14T09:03:19.900Z,150.70
2023-02-14T09:05:47.885Z,154.30
2023-02-14T09:08:16.124Z,170.65
2023-02-14T09:10:44.137Z,146.77
2023-02-14T09:13:11.989Z,151.15
2023-02-14T09:15:40.688Z,165.35
2023-02-14T09:18:08.789Z,157.80
2023-02-14T09:20:37.148Z,163.57
2023-02-14T09:23:05.442Z,153.98
2023-02-14T09:25:33.699Z,167.15
2023-02-14T09:28:01.790Z,155.30
2023-02-14T09:30:29.684Z,150.68
2023-02-14T09:32:57.620Z,147.40
2023-02-14T09:35:25.385Z,156.30
2023-02-14T09:37:53.254Z,150.60
2023-02-14T09:40:21.352Z,155.60
2023-02-14T09:43:03.315Z,172.00
2023-02-14T09:45:31.878Z,164.02
2023-02-14T09:48:15.878Z,162.57
2023-02-14T09:50:49.097Z,156.50
2023-02-14T09:53:22.204Z,156.80
2023-02-14T09:56:15.488Z,154.52
2023-02-14T09:58:59.378Z,175.10
2023-02-14T10:01:32.617Z,162.35
2023-02-14T10:04:19.348Z,188.30
2023-02-14T10:07:12.593Z,207.30
2023-02-14T10:12:19.924Z,202.65
2023-02-14T10:14:48.027Z,199.77
2023-02-14T10:17:18.879Z,203.77
2023-02-14T10:19:57.019Z,200.90
2023-02-14T10:22:46.917Z,206.68
2023-02-14T10:25:25.272Z,170.65
2023-02-14T10:27:53.790Z,170.15
2023-02-14T10:30:23.097Z,165.13
2023-02-14T10:33:02.026Z,154.77
2023-02-14T10:35:40.984Z,149.95
2023-02-14T10:38:37.202Z,142.30
2023-02-14T10:41:25.180Z,129.48
2023-02-14T10:44:09.528Z,136.95
2023-02-14T10:47:01.374Z,136.90
2023-02-14T10:49:45.143Z,123.63
2023-02-14T10:52:22.454Z,161.60
2023-02-14T10:55:00.474Z,150.05
2023-02-14T10:57:41.688Z,152.80
2023-02-14T11:00:31.640Z,154.18
2023-02-14T11:03:00.961Z,147.32
2023-02-14T11:05:38.122Z,155.82
2023-02-14T11:08:23.713Z,161.48
2023-02-14T11:10:51.693Z,148.95
2023-02-14T11:13:35.784Z,143.52
2023-02-14T11:16:09.268Z,159.68
2023-02-14T11:18:41.334Z,165.95
2023-02-14T11:21:11.358Z,163.93
2023-02-14T11:23:44.977Z,161.77
2023-02-14T11:26:35.091Z,157.85
2023-02-14T11:29:10.800Z,170.30
2023-02-14T11:31:39.623Z,157.50
2023-02-14T11:34:26.290Z,175.60
2023-02-14T11:36:56.163Z,163.88
2023-02-14T11:39:28.713Z,157.48
2023-02-14T11:44:30.360Z,150.05
2023-02-14T11:49:32.140Z,154.80
2023-02-14T11:52:10.407Z,155.98
2023-02-14T11:54:41.037Z,149.18
2023-02-14T11:57:22.830Z,146.25
2023-02-14T11:59:54.664Z,150.13
2023-02-14T12:02:38.872Z,156.85
2023-02-14T12:05:29.314Z,160.50
2023-02-14T12:08:07.222Z,133.15
2023-02-14T12:10:40.630Z,135.27
2023-02-14T12:13:09.512Z,143.70
2023-02-14T12:15:47.916Z,151.57
2023-02-14T12:18:47.863Z,145.95
2023-02-14T12:21:23.666Z,139.45
2023-02-14T12:24:25.603Z,137.35
2023-02-14T12:27:01.813Z,149.20
2023-02-14T12:29:42.872Z,135.48
2023-02-14T12:32:20.725Z,134.07
2023-02-14T12:34:50.128Z,159.35
2023-02-14T12:37:24.764Z,140.13
2023-02-14T12:40:02.509Z,193.52
2023-02-14T12:42:47.378Z,201.70
2023-02-14T12:45:25.978Z,253.90
2023-02-14T12:48:16.322Z,251.65
2023-02-14T12:50:48.921Z,165.98
2023-02-14T12:53:38.860Z,141.18
2023-02-14T12:56:34.854Z,147.90
2023-02-14T12:59:28.281Z,125.60
2023-02-14T13:02:15.722Z,149.02
2023-02-14T13:05:02.691Z,131.38
2023-02-14T13:08:07.492Z,133.45
2023-02-14T13:10:47.865Z,141.55
2023-02-14T13:13:37.143Z,139.40
2023-02-14T13:16:22.623Z,158.80
2023-02-14T13:18:57.125Z,155.32
2023-02-14T13:21:32.181Z,152.05
2023-02-14T13:24:29.418Z,152.07
2023-02-14T13:27:00.311Z,161.35
2023-02-14T13:29:33.996Z,182.77
2023-02-14T13:32:03.528Z,142.93
2023-02-14T13:34:37.770Z,153.30
2023-02-14T13:37:08.856Z,152.55
2023-02-14T13:39:43.416Z,167.05
2023-02-14T13:42:13.421Z,166.93
2023-02-14T13:44:50.812Z,159.73
2023-02-14T13:47:27.208Z,166.57
2023-02-14T13:50:04.308Z,167.88
2023-02-14T13:52:47.105Z,177.75
2023-02-14T13:55:23.815Z,171.18
2023-02-14T13:58:24.764Z,183.13
2023-02-14T14:00:53.580Z,183.18
2023-02-14T14:03:31.486Z,155.52
2023-02-14T14:06:12.316Z,167.90
2023-02-14T14:08:44.229Z,165.02
2023-02-14T14:11:22.354Z,157.35
2023-02-14T14:14:02.404Z,148.93
2023-02-14T14:16:35.534Z,147.23
2023-02-14T14:19:21.387Z,131.85
2023-02-14T14:22:09.974Z,149.55
2023-02-14T14:24:38.444Z,152.05
2023-02-14T14:27:15.996Z,147.68
2023-02-14T14:29:54.689Z,158.85
2023-02-14T14:32:30.788Z,171.60
2023-02-14T14:35:23.161Z,158.35
2023-02-14T14:37:53.709Z,116.35
2023-02-14T14:40:30.482Z,130.98
2023-02-14T14:43:21.986Z,105.93
2023-02-14T14:45:50.169Z,128.23
2023-02-14T14:48:22.832Z,139.05
2023-02-14T14:50:51.287Z,125.50
2023-02-14T14:53:46.483Z,159.50
2023-02-14T14:56:24.832Z,157.85
2023-02-14T14:58:52.985Z,160.25
2023-02-14T15:01:38.110Z,133.80
2023-02-14T15:04:16.429Z,149.63
2023-02-14T15:06:45.416Z,130.32
2023-02-14T15:09:23.469Z,139.68
2023-02-14T15:12:11.048Z,179.95
2023-02-14T15:14:42.012Z,191.18
2023-02-14T15:17:25.905Z,168.95
2023-02-14T15:19:56.224Z,201.43
2023-02-14T15:22:37.398Z,202.90
2023-02-14T15:25:14.621Z,211.35
2023-02-14T15:27:42.671Z,207.60
2023-02-14T15:30:39.549Z,199.90
2023-02-14T15:33:07.529Z,131.18
2023-02-14T15:35:37.588Z,145.68
2023-02-14T15:38:06.413Z,130.68
2023-02-14T15:40:35.238Z,119.13
2023-02-14T15:43:33.371Z,121.13
2023-02-14T15:46:37.610Z,126.28
2023-02-14T15:49:12.745Z,129.60
2023-02-14T15:51:41.302Z,141.57
2023-02-14T15:54:47.867Z,148.70
2023-02-14T15:57:26.914Z,146.00
2023-02-14T15:59:55.358Z,138.35
2023-02-14T16:02:42.870Z,163.52
2023-02-14T16:05:23.639Z,148.45
2023-02-14T16:08:05.619Z,118.93
2023-02-14T16:10:34.624Z,111.25
2023-02-14T16:13:14.885Z,146.15
2023-02-14T16:16:00.798Z,124.35
2023-02-14T16:18:39.792Z,130.77
2023-02-14T16:21:28.042Z,156.77
2023-02-14T16:24:14.175Z,394.27
2023-02-14T16:26:43.684Z,214.00
2023-02-14T16:29:13.646Z,241.60
2023-02-14T16:34:40.859Z,402.42
2023-02-14T16:37:10.369Z,409.58
2023-02-14T16:39:38.326Z,363.77
2023-02-14T16:42:06.401Z,464.13
2023-02-14T16:44:34.369Z,476.58
2023-02-14T16:47:02.728Z,433.45
2023-02-14T16:49:30.488Z,462.70
2023-02-14T16:51:58.256Z,381.83
2023-02-14T16:54:26.299Z,393.65
2023-02-14T16:57:02.785Z,349.70
2023-02-14T16:59:30.953Z,408.20
2023-02-14T17:01:59.365Z,488.00
2023-02-14T17:04:27.481Z,585.40
2023-02-14T17:06:57.823Z,601.00
2023-02-14T17:09:32.638Z,621.15
2023-02-14T17:12:02.358Z,669.78
2023-02-14T17:14:33.018Z,653.03
2023-02-14T17:17:00.863Z,660.92
2023-02-14T17:19:28.824Z,717.05
2023-02-14T17:22:00.654Z,610.65
2023-02-14T17:24:28.465Z,462.58
2023-02-14T17:26:56.345Z,466.58
2023-02-14T17:29:24.128Z,452.40
2023-02-14T17:31:52.243Z,314.88
2023-02-14T17:34:20.138Z,382.17
2023-02-14T17:36:48.577Z,399.70
2023-02-14T17:39:18.920Z,303.33
2023-02-14T17:41:47.234Z,337.10
2023-02-14T17:44:16.176Z,290.20
2023-02-14T17:46:44.430Z,289.70
2023-02-14T17:49:12.762Z,210.88
2023-02-14T17:51:40.556Z,265.42
2023-02-14T17:54:08.565Z,190.45
2023-02-14T17:56:36.328Z,170.75
2023-02-14T17:59:04.469Z,220.38
2023-02-14T18:01:34.961Z,242.75
2023-02-14T18:04:03.557Z,266.13
2023-02-14T18:06:33.013Z,288.33
2023-02-14T18:09:02.055Z,327.23
2023-02-14T18:11:30.962Z,310.08
2023-02-14T18:14:00.158Z,315.08
2023-02-14T18:16:28.586Z,291.88
2023-02-14T18:18:56.739Z,292.45
2023-02-14T18:21:24.950Z,315.83
2023-02-14T18:23:53.409Z,308.40
2023-02-14T18:26:21.161Z,319.52
2023-02-14T18:28:51.649Z,301.33
2023-02-14T18:31:19.623Z,334.02
2023-02-14T18:33:48.398Z,343.90
2023-02-14T18:36:18.706Z,303.48
2023-02-14T18:38:48.341Z,209.02
2023-02-14T18:41:17.561Z,184.57
2023-02-14T18:43:45.752Z,193.68
2023-02-14T18:46:16.233Z,226.00
2023-02-14T18:48:48.200Z,297.75
2023-02-14T18:51:24.673Z,313.13
2023-02-14T18:53:52.642Z,324.85
2023-02-14T18:56:31.648Z,289.10
2023-02-14T18:59:01.830Z,289.48
2023-02-14T19:01:31.596Z,327.20
2023-02-14T19:04:00.497Z,300.25
2023-02-14T19:06:30.012Z,288.98
2023-02-14T19:08:58.637Z,309.10
2023-02-14T19:11:28.561Z,337.10
2023-02-14T19:13:57.340Z,330.13
2023-02-14T19:16:33.748Z,377.33
2023-02-14T19:19:03.007Z,301.95
2023-02-14T19:21:32.941Z,303.58
2023-02-14T19:24:01.615Z,323.35
2023-02-14T19:26:33.146Z,339.17
2023-02-14T19:29:02.667Z,347.23
2023-02-14T19:31:31.008Z,307.52
2023-02-14T19:33:59.089Z,272.98
2023-02-14T19:36:27.006Z,290.95
2023-02-14T19:38:56.444Z,325.20
2023-02-14T19:41:30.572Z,298.17
2023-02-14T19:43:59.489Z,333.83
2023-02-14T19:46:28.339Z,308.30
2023-02-14T19:48:57.678Z,322.73
2023-02-14T19:51:30.219Z,315.40
2023-02-14T19:53:59.668Z,296.75
2023-02-14T19:56:29.453Z,263.23
2023-02-14T19:58:57.715Z,220.40
2023-02-14T20:01:27.772Z,212.77
2023-02-14T20:03:55.837Z,233.93
2023-02-14T20:06:24.267Z,263.50
2023-02-14T20:08:52.335Z,218.50
2023-02-14T20:11:30.964Z,253.00
2023-02-14T20:13:59.719Z,235.05
2023-02-14T20:16:28.538Z,215.68
2023-02-14T20:18:56.503Z,223.65
2023-02-14T20:21:28.868Z,204.30
2023-02-14T20:26:29.887Z,208.27
2023-02-14T20:29:04.066Z,206.85
2023-02-14T20:31:32.993Z,201.48
2023-02-14T20:34:00.991Z,198.73
2023-02-14T20:36:29.062Z,215.30
2023-02-14T20:39:01.142Z,208.93
2023-02-14T20:41:29.437Z,237.80
2023-02-14T20:44:03.371Z,211.77
2023-02-14T20:46:32.161Z,211.75
2023-02-14T20:49:00.413Z,181.60
2023-02-14T20:51:28.453Z,185.55
2023-02-14T20:53:56.322Z,204.15
2023-02-14T20:56:24.334Z,276.63
2023-02-14T20:58:52.597Z,553.28
2023-02-14T21:01:24.457Z,636.80
2023-02-14T21:03:53.470Z,444.58
2023-02-14T21:06:23.603Z,555.85
2023-02-14T21:08:51.490Z,510.17
2023-02-14T21:11:20.651Z,561.72
2023-02-14T21:13:48.467Z,648.15
2023-02-14T21:16:17.878Z,597.85
2023-02-14T21:18:48.971Z,601.75
2023-02-14T21:21:20.931Z,623.53
2023-02-14T21:23:52.362Z,568.70
2023-02-14T21:26:20.706Z,587.22
2023-02-14T21:28:48.837Z,590.28
2023-02-14T21:31:18.530Z,573.47
2023-02-14T21:33:46.374Z,633.78
2023-02-14T21:36:16.276Z,596.17
2023-02-14T21:38:44.334Z,558.22
2023-02-14T21:41:14.139Z,578.80
2023-02-14T21:43:43.988Z,554.70
2023-02-14T21:46:27.780Z,559.90
2023-02-14T21:49:14.298Z,546.75
2023-02-14T21:51:42.465Z,509.20
2023-02-14T21:54:10.642Z,533.05
2023-02-14T21:56:39.198Z,469.00
2023-02-14T21:59:07.058Z,471.70
2023-02-14T22:01:35.933Z,455.85
2023-02-14T22:04:08.116Z,458.30
2023-02-14T22:06:38.050Z,454.75
2023-02-14T22:09:05.932Z,454.77
2023-02-14T22:11:34.231Z,412.52
2023-02-14T22:14:02.003Z,426.98
2023-02-14T22:16:30.204Z,421.27
2023-02-14T22:18:58.259Z,415.33
2023-02-14T22:21:26.989Z,466.42
2023-02-14T22:23:56.000Z,502.45
2023-02-14T22:26:28.882Z,446.58
2023-02-14T22:28:59.753Z,442.80
2023-02-14T22:31:29.754Z,431.05
2023-02-14T22:33:57.751Z,402.88
2023-02-14T22:36:25.732Z,368.38
2023-02-14T22:38:53.640Z,367.73
2023-02-14T22:41:23.096Z,370.05
2023-02-14T22:43:51.556Z,361.77
2023-02-14T22:46:21.592Z,333.48
2023-02-14T22:48:49.830Z,324.98
2023-02-14T22:51:27.991Z,315.15
2023-02-14T22:54:00.995Z,305.65
2023-02-14T22:56:36.289Z,265.40
2023-02-14T22:59:06.684Z,240.95
2023-02-14T23:01:35.122Z,228.25
2023-02-14T23:04:03.571Z,245.13
2023-02-14T23:06:33.107Z,216.98
2023-02-14T23:09:01.568Z,175.80
2023-02-14T23:11:30.628Z,164.88
2023-02-14T23:14:17.472Z,177.88
2023-02-14T23:17:03.944Z,163.82
2023-02-14T23:19:52.404Z,177.07
2023-02-14T23:22:28.379Z,160.48
2023-02-14T23:25:00.585Z,187.40
2023-02-14T23:27:34.129Z,220.13
2023-02-14T23:30:02.575Z,194.35
2023-02-14T23:32:30.437Z,172.25
2023-02-14T23:34:58.771Z,153.95
2023-02-14T23:37:26.590Z,167.02
2023-02-14T23:39:54.362Z,144.50
2023-02-14T23:42:22.541Z,150.10
2023-02-14T23:44:50.328Z,151.18
2023-02-14T23:47:18.696Z,143.13
2023-02-14T23:49:46.613Z,142.85
2023-02-14T23:52:15.106Z,134.43
2023-02-14T23:54:42.937Z,150.73
2023-02-14T23:57:10.819Z,154.15
2023-02-14T23:59:38.593Z,142.23
